Salt Flat, TX (79847)

1:42 AM MDT on August 30, 2016 (GMT -0600)
APRSWXNET | | Change Station

Elev 3694 ft 31.73 °N, 104.93 °W | Updated 39 minutes ago

Partly Cloudy
Partly Cloudy
71 °F
Feels Like 72 °F
N
5
Wind Variable Wind from ENE
Gusts 7.0 mph

Today
High -- | Low -- °F
--% Chance of Precip.
Yesterday
High -- | Low -- °F
Precip. -- in
Pressure 30.04 in
Visibility 10.0 miles
Clouds Few 3300 ft
Heat Index 72 °F
Dew Point 63 °F
Humidity 77%
Rainfall in
Snow Depth Not available.
6:35 AM 7:25 PM
Waning Crescent, 5% visible
METAR KCNM 300653Z AUTO 05005KT 10SM FEW033 22/18 A3019 RMK AO2 SLP173 T02170178 402940178
Pressure 30.04 in
Visibility 10.0 miles
Clouds Few 3300 ft
Heat Index 72 °F
Dew Point 63 °F
Humidity 77%
Rainfall in
Snow Depth Not available.
6:35 AM 7:25 PM
Waning Crescent, 5% visible
METAR KCNM 300653Z AUTO 05005KT 10SM FEW033 22/18 A3019 RMK AO2 SLP173 T02170178 402940178

10-Day Weather Forecast

Almanac

Astronomy

Aug. 30, 2016 Rise Set
Actual Time
Civil Twilight
Nautical Twilight
Astronomical Twilight
Moon
Length of Visible Light
Length of Day
Tomorrow will be .
, % of the Moon is Illuminated

Today's Extremes

State Highs State Lows

Community

WunderPhotos

Upload Photos

1,935,795 photos uploaded!

WunderBlog® & News

Nearby

Air Quality

  Air Quality AQ Index Pollutant
Not available.

Snow Depth

Station Depth Elevation

Earthquake Activity

City Distance Mag. Time & Date
Minimum magnitude displayed is 2.5.

Coastal Water Temperatures

Place Temperature

Stations

Nearby Weather Stations

Station Location Temp. Windchill Dew Point Humidity Wind Precip. Elev Updated Type
                   

Watches & Warnings

There are currently no watches in effect.